sensor_id;sensor_type;location;lat;lon;timestamp;temperature;humidity
15983;DHT22;14442;50.196;8.096;2023-07-08T00:01:13;22.20;57.10
15983;DHT22;14442;50.196;8.096;2023-07-08T00:03:40;22.20;57.10
15983;DHT22;14442;50.196;8.096;2023-07-08T00:06:09;22.20;57.10
15983;DHT22;14442;50.196;8.096;2023-07-08T00:08:37;22.20;57.10
15983;DHT22;14442;50.196;8.096;2023-07-08T00:11:07;22.10;57.10
15983;DHT22;14442;50.196;8.096;2023-07-08T00:13:34;22.10;57.10
15983;DHT22;14442;50.196;8.096;2023-07-08T00:16:01;22.10;57.10
15983;DHT22;14442;50.196;8.096;2023-07-08T00:18:28;22.10;57.10
15983;DHT22;14442;50.196;8.096;2023-07-08T00:20:55;22.10;57.10
15983;DHT22;14442;50.196;8.096;2023-07-08T00:23:25;22.10;57.10
15983;DHT22;14442;50.196;8.096;2023-07-08T00:25:51;22.10;57.10
15983;DHT22;14442;50.196;8.096;2023-07-08T00:28:18;22.20;57.20
15983;DHT22;14442;50.196;8.096;2023-07-08T00:30:46;22.10;57.10
15983;DHT22;14442;50.196;8.096;2023-07-08T00:33:13;22.10;57.10
15983;DHT22;14442;50.196;8.096;2023-07-08T00:35:41;22.10;57.10
15983;DHT22;14442;50.196;8.096;2023-07-08T00:38:11;22.10;57.10
15983;DHT22;14442;50.196;8.096;2023-07-08T00:40:48;22.10;57.20
15983;DHT22;14442;50.196;8.096;2023-07-08T00:43:15;22.10;57.20
15983;DHT22;14442;50.196;8.096;2023-07-08T00:45:43;22.10;57.10
15983;DHT22;14442;50.196;8.096;2023-07-08T00:48:16;22.10;57.20
15983;DHT22;14442;50.196;8.096;2023-07-08T00:50:45;22.10;57.20
15983;DHT22;14442;50.196;8.096;2023-07-08T00:53:26;22.00;57.10
15983;DHT22;14442;50.196;8.096;2023-07-08T00:55:53;22.00;57.10
15983;DHT22;14442;50.196;8.096;2023-07-08T00:58:21;22.00;57.80
15983;DHT22;14442;50.196;8.096;2023-07-08T01:00:49;22.00;57.10
15983;DHT22;14442;50.196;8.096;2023-07-08T01:03:16;22.00;57.10
15983;DHT22;14442;50.196;8.096;2023-07-08T01:05:45;22.00;57.10
15983;DHT22;14442;50.196;8.096;2023-07-08T01:08:12;22.00;57.20
15983;DHT22;14442;50.196;8.096;2023-07-08T01:10:40;22.00;57.10
15983;DHT22;14442;50.196;8.096;2023-07-08T01:13:09;22.10;57.30
15983;DHT22;14442;50.196;8.096;2023-07-08T01:15:37;22.00;57.20
15983;DHT22;14442;50.196;8.096;2023-07-08T01:18:05;22.00;57.20
15983;DHT22;14442;50.196;8.096;2023-07-08T01:20:32;22.00;57.20
15983;DHT22;14442;50.196;8.096;2023-07-08T01:23:00;22.00;57.20
15983;DHT22;14442;50.196;8.096;2023-07-08T01:25:27;22.00;57.20
15983;DHT22;14442;50.196;8.096;2023-07-08T01:27:54;22.00;57.20
15983;DHT22;14442;50.196;8.096;2023-07-08T01:30:21;22.00;57.20
15983;DHT22;14442;50.196;8.096;2023-07-08T01:32:49;22.00;57.20
15983;DHT22;14442;50.196;8.096;2023-07-08T01:35:16;22.00;57.20
15983;DHT22;14442;50.196;8.096;2023-07-08T01:37:43;22.00;57.20
15983;DHT22;14442;50.196;8.096;2023-07-08T01:40:16;22.00;57.20
15983;DHT22;14442;50.196;8.096;2023-07-08T01:42:42;21.90;57.10
15983;DHT22;14442;50.196;8.096;2023-07-08T01:45:10;22.00;57.20
15983;DHT22;14442;50.196;8.096;2023-07-08T01:47:37;22.00;57.20
15983;DHT22;14442;50.196;8.096;2023-07-08T01:50:04;22.00;57.20
15983;DHT22;14442;50.196;8.096;2023-07-08T01:52:31;21.90;57.20
15983;DHT22;14442;50.196;8.096;2023-07-08T01:54:58;22.00;57.20
15983;DHT22;14442;50.196;8.096;2023-07-08T01:57:26;21.90;57.10
15983;DHT22;14442;50.196;8.096;2023-07-08T01:59:52;22.00;57.20
15983;DHT22;14442;50.196;8.096;2023-07-08T02:02:19;21.90;57.10
15983;DHT22;14442;50.196;8.096;2023-07-08T02:04:45;21.90;57.20
15983;DHT22;14442;50.196;8.096;2023-07-08T02:07:12;21.90;57.20
15983;DHT22;14442;50.196;8.096;2023-07-08T02:09:38;21.90;57.20
15983;DHT22;14442;50.196;8.096;2023-07-08T02:12:05;21.90;57.10
15983;DHT22;14442;50.196;8.096;2023-07-08T02:14:33;21.90;57.20
15983;DHT22;14442;50.196;8.096;2023-07-08T02:17:00;21.90;57.20
15983;DHT22;14442;50.196;8.096;2023-07-08T02:19:31;21.90;57.20
15983;DHT22;14442;50.196;8.096;2023-07-08T02:21:57;21.90;57.20
15983;DHT22;14442;50.196;8.096;2023-07-08T02:24:24;21.90;57.10
15983;DHT22;14442;50.196;8.096;2023-07-08T02:26:50;21.90;57.20
15983;DHT22;14442;50.196;8.096;2023-07-08T02:29:17;21.80;57.10
15983;DHT22;14442;50.196;8.096;2023-07-08T02:31:45;21.90;57.20
15983;DHT22;14442;50.196;8.096;2023-07-08T02:34:11;21.90;57.20
15983;DHT22;14442;50.196;8.096;2023-07-08T02:36:38;21.90;57.20
15983;DHT22;14442;50.196;8.096;2023-07-08T02:39:04;21.90;57.20
15983;DHT22;14442;50.196;8.096;2023-07-08T02:41:31;21.90;57.20
15983;DHT22;14442;50.196;8.096;2023-07-08T02:43:58;21.90;57.20
15983;DHT22;14442;50.196;8.096;2023-07-08T02:46:25;21.90;57.20
15983;DHT22;14442;50.196;8.096;2023-07-08T02:48:52;21.90;57.20
15983;DHT22;14442;50.196;8.096;2023-07-08T02:51:19;21.90;57.20
15983;DHT22;14442;50.196;8.096;2023-07-08T02:53:46;21.90;57.20
15983;DHT22;14442;50.196;8.096;2023-07-08T02:56:13;21.90;57.20
15983;DHT22;14442;50.196;8.096;2023-07-08T02:58:39;21.90;57.20
15983;DHT22;14442;50.196;8.096;2023-07-08T03:01:06;21.90;57.20
15983;DHT22;14442;50.196;8.096;2023-07-08T03:03:32;21.90;57.20
15983;DHT22;14442;50.196;8.096;2023-07-08T03:06:02;21.90;57.20
15983;DHT22;14442;50.196;8.096;2023-07-08T03:08:30;21.90;57.30
15983;DHT22;14442;50.196;8.096;2023-07-08T03:10:57;21.90;57.20
15983;DHT22;14442;50.196;8.096;2023-07-08T03:13:24;21.80;57.20
15983;DHT22;14442;50.196;8.096;2023-07-08T03:15:51;21.90;57.30
15983;DHT22;14442;50.196;8.096;2023-07-08T03:18:17;21.80;57.20
15983;DHT22;14442;50.196;8.096;2023-07-08T03:20:47;21.80;57.80
15983;DHT22;14442;50.196;8.096;2023-07-08T03:23:15;21.80;57.20
15983;DHT22;14442;50.196;8.096;2023-07-08T03:25:41;21.90;57.30
15983;DHT22;14442;50.196;8.096;2023-07-08T03:28:08;21.90;57.30
15983;DHT22;14442;50.196;8.096;2023-07-08T03:30:40;21.90;57.30
15983;DHT22;14442;50.196;8.096;2023-07-08T03:33:07;21.80;57.20
15983;DHT22;14442;50.196;8.096;2023-07-08T03:35:33;21.90;57.40
15983;DHT22;14442;50.196;8.096;2023-07-08T03:38:00;21.80;57.30
15983;DHT22;14442;50.196;8.096;2023-07-08T03:40:28;21.80;57.30
15983;DHT22;14442;50.196;8.096;2023-07-08T03:42:55;21.80;57.20
15983;DHT22;14442;50.196;8.096;2023-07-08T03:45:21;21.80;57.20
15983;DHT22;14442;50.196;8.096;2023-07-08T03:47:48;21.80;57.30
15983;DHT22;14442;50.196;8.096;2023-07-08T03:50:16;21.80;57.30
15983;DHT22;14442;50.196;8.096;2023-07-08T03:52:44;21.80;57.20
15983;DHT22;14442;50.196;8.096;2023-07-08T03:55:10;21.80;57.30
15983;DHT22;14442;50.196;8.096;2023-07-08T03:57:38;21.80;57.30
15983;DHT22;14442;50.196;8.096;2023-07-08T04:00:05;21.80;57.30
15983;DHT22;14442;50.196;8.096;2023-07-08T04:02:34;21.80;57.30
15983;DHT22;14442;50.196;8.096;2023-07-08T04:05:01;21.80;57.20
15983;DHT22;14442;50.196;8.096;2023-07-08T04:07:28;21.80;57.30
15983;DHT22;14442;50.196;8.096;2023-07-08T04:09:54;21.80;57.30
15983;DHT22;14442;50.196;8.096;2023-07-08T04:12:21;21.80;57.30
15983;DHT22;14442;50.196;8.096;2023-07-08T04:14:49;21.80;57.30
15983;DHT22;14442;50.196;8.096;2023-07-08T04:17:15;21.80;57.30
15983;DHT22;14442;50.196;8.096;2023-07-08T04:19:43;21.80;57.30
15983;DHT22;14442;50.196;8.096;2023-07-08T04:22:10;21.80;57.30
15983;DHT22;14442;50.196;8.096;2023-07-08T04:24:36;21.80;57.30
15983;DHT22;14442;50.196;8.096;2023-07-08T04:27:03;21.80;57.30
15983;DHT22;14442;50.196;8.096;2023-07-08T04:29:30;21.80;57.30
15983;DHT22;14442;50.196;8.096;2023-07-08T04:31:58;21.80;57.30
15983;DHT22;14442;50.196;8.096;2023-07-08T04:34:24;21.80;57.30
15983;DHT22;14442;50.196;8.096;2023-07-08T04:36:51;21.80;57.30
15983;DHT22;14442;50.196;8.096;2023-07-08T04:39:18;21.70;57.20
15983;DHT22;14442;50.196;8.096;2023-07-08T04:41:44;21.70;57.20
15983;DHT22;14442;50.196;8.096;2023-07-08T04:44:11;21.80;57.30
15983;DHT22;14442;50.196;8.096;2023-07-08T04:46:39;21.80;57.30
15983;DHT22;14442;50.196;8.096;2023-07-08T04:49:08;21.70;57.80
15983;DHT22;14442;50.196;8.096;2023-07-08T04:51:35;21.80;57.30
15983;DHT22;14442;50.196;8.096;2023-07-08T04:54:01;21.80;57.30
15983;DHT22;14442;50.196;8.096;2023-07-08T04:56:34;21.70;57.20
15983;DHT22;14442;50.196;8.096;2023-07-08T04:59:02;21.70;57.10
15983;DHT22;14442;50.196;8.096;2023-07-08T05:01:28;21.70;57.20
15983;DHT22;14442;50.196;8.096;2023-07-08T05:03:55;21.80;57.30
15983;DHT22;14442;50.196;8.096;2023-07-08T05:06:23;21.80;57.20
15983;DHT22;14442;50.196;8.096;2023-07-08T05:08:50;21.80;57.30
15983;DHT22;14442;50.196;8.096;2023-07-08T05:11:17;21.80;57.20
15983;DHT22;14442;50.196;8.096;2023-07-08T05:13:43;21.70;57.10
15983;DHT22;14442;50.196;8.096;2023-07-08T05:16:10;21.80;57.30
15983;DHT22;14442;50.196;8.096;2023-07-08T05:18:36;21.80;57.30
15983;DHT22;14442;50.196;8.096;2023-07-08T05:21:03;21.80;57.20
15983;DHT22;14442;50.196;8.096;2023-07-08T05:23:32;21.80;57.20
15983;DHT22;14442;50.196;8.096;2023-07-08T05:25:59;21.80;57.20
15983;DHT22;14442;50.196;8.096;2023-07-08T05:28:25;21.80;57.20
15983;DHT22;14442;50.196;8.096;2023-07-08T05:30:52;21.70;57.10
15983;DHT22;14442;50.196;8.096;2023-07-08T05:33:19;21.80;57.20
15983;DHT22;14442;50.196;8.096;2023-07-08T05:35:46;21.80;57.20
15983;DHT22;14442;50.196;8.096;2023-07-08T05:38:12;21.80;57.20
15983;DHT22;14442;50.196;8.096;2023-07-08T05:40:40;21.80;57.20
15983;DHT22;14442;50.196;8.096;2023-07-08T05:43:07;21.80;57.20
15983;DHT22;14442;50.196;8.096;2023-07-08T05:45:33;21.80;57.20
15983;DHT22;14442;50.196;8.096;2023-07-08T05:48:00;21.80;57.20
15983;DHT22;14442;50.196;8.096;2023-07-08T05:50:27;21.80;57.20
15983;DHT22;14442;50.196;8.096;2023-07-08T05:52:54;21.80;57.20
15983;DHT22;14442;50.196;8.096;2023-07-08T05:55:20;21.80;57.20
15983;DHT22;14442;50.196;8.096;2023-07-08T05:57:48;21.80;57.20
15983;DHT22;14442;50.196;8.096;2023-07-08T06:00:15;21.80;57.20
15983;DHT22;14442;50.196;8.096;2023-07-08T06:02:41;21.80;57.30
15983;DHT22;14442;50.196;8.096;2023-07-08T06:05:08;21.70;57.10
15983;DHT22;14442;50.196;8.096;2023-07-08T06:07:34;21.80;57.20
15983;DHT22;14442;50.196;8.096;2023-07-08T06:10:01;21.70;57.10
15983;DHT22;14442;50.196;8.096;2023-07-08T06:12:27;21.70;57.10
15983;DHT22;14442;50.196;8.096;2023-07-08T06:14:56;21.70;57.20
15983;DHT22;14442;50.196;8.096;2023-07-08T06:17:23;21.70;57.20
15983;DHT22;14442;50.196;8.096;2023-07-08T06:19:50;21.70;57.20
15983;DHT22;14442;50.196;8.096;2023-07-08T06:22:16;21.70;57.20
15983;DHT22;14442;50.196;8.096;2023-07-08T06:24:43;21.70;57.10
15983;DHT22;14442;50.196;8.096;2023-07-08T06:27:09;21.70;57.20
15983;DHT22;14442;50.196;8.096;2023-07-08T06:29:36;21.70;57.20
15983;DHT22;14442;50.196;8.096;2023-07-08T06:32:05;21.70;57.20
15983;DHT22;14442;50.196;8.096;2023-07-08T06:34:31;21.70;57.20
15983;DHT22;14442;50.196;8.096;2023-07-08T06:36:58;21.70;57.20
15983;DHT22;14442;50.196;8.096;2023-07-08T06:39:25;21.70;57.20
15983;DHT22;14442;50.196;8.096;2023-07-08T06:41:51;21.70;57.20
15983;DHT22;14442;50.196;8.096;2023-07-08T06:44:18;21.70;57.20
15983;DHT22;14442;50.196;8.096;2023-07-08T06:46:44;21.70;57.20
15983;DHT22;14442;50.196;8.096;2023-07-08T06:49:12;21.70;57.20
15983;DHT22;14442;50.196;8.096;2023-07-08T06:51:39;21.70;57.30
15983;DHT22;14442;50.196;8.096;2023-07-08T06:54:05;21.70;57.20
15983;DHT22;14442;50.196;8.096;2023-07-08T06:56:36;21.70;57.20
15983;DHT22;14442;50.196;8.096;2023-07-08T06:59:03;21.70;57.20
15983;DHT22;14442;50.196;8.096;2023-07-08T07:01:30;21.70;57.30
15983;DHT22;14442;50.196;8.096;2023-07-08T07:03:56;21.70;57.30
15983;DHT22;14442;50.196;8.096;2023-07-08T07:06:25;21.70;57.30
15983;DHT22;14442;50.196;8.096;2023-07-08T07:08:52;21.70;57.30
15983;DHT22;14442;50.196;8.096;2023-07-08T07:11:18;21.70;57.20
15983;DHT22;14442;50.196;8.096;2023-07-08T07:13:45;21.70;57.30
15983;DHT22;14442;50.196;8.096;2023-07-08T07:16:12;21.70;57.30
15983;DHT22;14442;50.196;8.096;2023-07-08T07:18:38;21.60;57.20
15983;DHT22;14442;50.196;8.096;2023-07-08T07:21:05;21.70;57.30
15983;DHT22;14442;50.196;8.096;2023-07-08T07:23:33;21.70;57.30
15983;DHT22;14442;50.196;8.096;2023-07-08T07:25:59;21.70;57.30
15983;DHT22;14442;50.196;8.096;2023-07-08T07:28:26;21.70;57.30
15983;DHT22;14442;50.196;8.096;2023-07-08T07:30:56;21.70;57.20
15983;DHT22;14442;50.196;8.096;2023-07-08T07:33:23;21.70;57.20
15983;DHT22;14442;50.196;8.096;2023-07-08T07:35:50;21.70;57.20
15983;DHT22;14442;50.196;8.096;2023-07-08T07:38:16;21.70;57.20
15983;DHT22;14442;50.196;8.096;2023-07-08T07:40:44;21.70;57.20
15983;DHT22;14442;50.196;8.096;2023-07-08T07:43:11;21.70;57.20
15983;DHT22;14442;50.196;8.096;2023-07-08T07:45:37;21.70;57.20
15983;DHT22;14442;50.196;8.096;2023-07-08T07:48:04;21.80;57.30
15983;DHT22;14442;50.196;8.096;2023-07-08T07:50:30;21.80;57.20
15983;DHT22;14442;50.196;8.096;2023-07-08T07:52:57;21.80;57.20
15983;DHT22;14442;50.196;8.096;2023-07-08T07:55:24;21.80;57.20
15983;DHT22;14442;50.196;8.096;2023-07-08T07:57:52;21.80;57.20
15983;DHT22;14442;50.196;8.096;2023-07-08T08:00:19;21.80;57.20
15983;DHT22;14442;50.196;8.096;2023-07-08T08:02:45;21.80;57.20
15983;DHT22;14442;50.196;8.096;2023-07-08T08:05:12;21.80;57.20
15983;DHT22;14442;50.196;8.096;2023-07-08T08:07:39;21.80;57.10
15983;DHT22;14442;50.196;8.096;2023-07-08T08:10:06;21.80;57.20
15983;DHT22;14442;50.196;8.096;2023-07-08T08:12:32;21.80;57.10
15983;DHT22;14442;50.196;8.096;2023-07-08T08:15:00;21.80;57.10
15983;DHT22;14442;50.196;8.096;2023-07-08T08:17:27;21.80;57.10
15983;DHT22;14442;50.196;8.096;2023-07-08T08:19:53;21.90;57.20
15983;DHT22;14442;50.196;8.096;2023-07-08T08:22:20;21.80;57.00
15983;DHT22;14442;50.196;8.096;2023-07-08T08:24:47;21.90;57.10
15983;DHT22;14442;50.196;8.096;2023-07-08T08:27:14;21.90;57.20
15983;DHT22;14442;50.196;8.096;2023-07-08T08:29:40;21.90;57.60
15983;DHT22;14442;50.196;8.096;2023-07-08T08:32:08;21.90;57.60
15983;DHT22;14442;50.196;8.096;2023-07-08T08:34:35;21.90;57.60
15983;DHT22;14442;50.196;8.096;2023-07-08T08:37:01;21.90;57.70
15983;DHT22;14442;50.196;8.096;2023-07-08T08:39:28;21.90;57.70
15983;DHT22;14442;50.196;8.096;2023-07-08T08:41:55;21.90;57.70
15983;DHT22;14442;50.196;8.096;2023-07-08T08:44:23;22.00;57.70
15983;DHT22;14442;50.196;8.096;2023-07-08T08:46:52;22.00;57.60
15983;DHT22;14442;50.196;8.096;2023-07-08T08:49:23;22.00;57.60
15983;DHT22;14442;50.196;8.096;2023-07-08T08:51:52;22.00;57.60
15983;DHT22;14442;50.196;8.096;2023-07-08T08:54:19;22.00;57.60
15983;DHT22;14442;50.196;8.096;2023-07-08T08:56:48;22.00;57.60
15983;DHT22;14442;50.196;8.096;2023-07-08T08:59:18;22.00;57.60
15983;DHT22;14442;50.196;8.096;2023-07-08T09:01:49;22.00;57.60
15983;DHT22;14442;50.196;8.096;2023-07-08T09:04:17;22.00;57.70
15983;DHT22;14442;50.196;8.096;2023-07-08T09:06:47;22.10;57.90
15983;DHT22;14442;50.196;8.096;2023-07-08T09:09:15;22.10;58.00
15983;DHT22;14442;50.196;8.096;2023-07-08T09:11:44;22.10;58.40
15983;DHT22;14442;50.196;8.096;2023-07-08T09:14:16;22.10;58.50
15983;DHT22;14442;50.196;8.096;2023-07-08T09:16:45;22.10;58.50
15983;DHT22;14442;50.196;8.096;2023-07-08T09:19:14;22.20;58.50
15983;DHT22;14442;50.196;8.096;2023-07-08T09:21:42;22.20;58.60
15983;DHT22;14442;50.196;8.096;2023-07-08T09:24:14;22.30;58.70
15983;DHT22;14442;50.196;8.096;2023-07-08T09:26:43;22.30;58.70
15983;DHT22;14442;50.196;8.096;2023-07-08T09:29:10;22.30;58.80
15983;DHT22;14442;50.196;8.096;2023-07-08T09:31:37;22.40;58.80
15983;DHT22;14442;50.196;8.096;2023-07-08T09:34:06;22.40;58.70
15983;DHT22;14442;50.196;8.096;2023-07-08T09:36:32;22.40;58.70
15983;DHT22;14442;50.196;8.096;2023-07-08T09:38:59;22.40;58.80
15983;DHT22;14442;50.196;8.096;2023-07-08T09:41:29;22.40;58.70
15983;DHT22;14442;50.196;8.096;2023-07-08T09:44:03;22.40;58.60
15983;DHT22;14442;50.196;8.096;2023-07-08T09:46:31;22.40;58.60
15983;DHT22;14442;50.196;8.096;2023-07-08T09:49:05;22.40;58.70
15983;DHT22;14442;50.196;8.096;2023-07-08T09:51:35;22.50;58.70
15983;DHT22;14442;50.196;8.096;2023-07-08T09:54:01;22.50;58.70
15983;DHT22;14442;50.196;8.096;2023-07-08T09:56:29;22.50;58.70
15983;DHT22;14442;50.196;8.096;2023-07-08T09:58:56;22.40;58.60
15983;DHT22;14442;50.196;8.096;2023-07-08T10:01:25;22.50;58.80
15983;DHT22;14442;50.196;8.096;2023-07-08T10:03:57;22.50;58.80
15983;DHT22;14442;50.196;8.096;2023-07-08T10:06:25;22.50;58.80
15983;DHT22;14442;50.196;8.096;2023-07-08T10:08:53;22.50;58.80
15983;DHT22;14442;50.196;8.096;2023-07-08T10:11:22;22.50;58.70
15983;DHT22;14442;50.196;8.096;2023-07-08T10:13:52;22.50;58.70
15983;DHT22;14442;50.196;8.096;2023-07-08T10:16:21;22.50;58.70
15983;DHT22;14442;50.196;8.096;2023-07-08T10:18:49;22.50;58.70
15983;DHT22;14442;50.196;8.096;2023-07-08T10:21:20;22.50;58.70
15983;DHT22;14442;50.196;8.096;2023-07-08T10:23:50;22.50;58.60
15983;DHT22;14442;50.196;8.096;2023-07-08T10:26:20;22.60;58.70
15983;DHT22;14442;50.196;8.096;2023-07-08T10:28:53;22.50;58.50
15983;DHT22;14442;50.196;8.096;2023-07-08T10:31:25;22.50;58.60
15983;DHT22;14442;50.196;8.096;2023-07-08T10:33:56;22.50;58.60
15983;DHT22;14442;50.196;8.096;2023-07-08T10:36:28;22.50;58.60
15983;DHT22;14442;50.196;8.096;2023-07-08T10:39:06;22.60;58.70
15983;DHT22;14442;50.196;8.096;2023-07-08T10:41:41;22.60;58.60
15983;DHT22;14442;50.196;8.096;2023-07-08T10:44:12;22.60;58.60
15983;DHT22;14442;50.196;8.096;2023-07-08T10:46:46;22.60;58.50
15983;DHT22;14442;50.196;8.096;2023-07-08T10:52:05;22.60;58.50
15983;DHT22;14442;50.196;8.096;2023-07-08T10:54:43;22.60;58.50
15983;DHT22;14442;50.196;8.096;2023-07-08T10:57:19;22.70;58.60
15983;DHT22;14442;50.196;8.096;2023-07-08T10:59:54;22.70;58.60
15983;DHT22;14442;50.196;8.096;2023-07-08T11:02:31;22.70;58.60
15983;DHT22;14442;50.196;8.096;2023-07-08T11:05:05;22.70;58.50
15983;DHT22;14442;50.196;8.096;2023-07-08T11:07:38;22.70;58.50
15983;DHT22;14442;50.196;8.096;2023-07-08T11:10:07;22.70;58.50
15983;DHT22;14442;50.196;8.096;2023-07-08T11:12:36;22.70;59.10
15983;DHT22;14442;50.196;8.096;2023-07-08T11:15:07;22.70;58.40
15983;DHT22;14442;50.196;8.096;2023-07-08T11:17:40;22.70;58.40
15983;DHT22;14442;50.196;8.096;2023-07-08T11:20:11;22.70;58.30
15983;DHT22;14442;50.196;8.096;2023-07-08T11:22:41;22.80;58.40
15983;DHT22;14442;50.196;8.096;2023-07-08T11:25:15;22.80;58.40
15983;DHT22;14442;50.196;8.096;2023-07-08T11:27:42;22.80;58.40
15983;DHT22;14442;50.196;8.096;2023-07-08T11:30:13;22.80;58.30
15983;DHT22;14442;50.196;8.096;2023-07-08T11:32:39;22.80;58.30
15983;DHT22;14442;50.196;8.096;2023-07-08T11:35:12;22.80;58.30
15983;DHT22;14442;50.196;8.096;2023-07-08T11:37:39;22.90;58.30
15983;DHT22;14442;50.196;8.096;2023-07-08T11:40:06;22.90;58.20
15983;DHT22;14442;50.196;8.096;2023-07-08T11:42:34;22.90;58.20
15983;DHT22;14442;50.196;8.096;2023-07-08T11:45:02;22.90;58.20
15983;DHT22;14442;50.196;8.096;2023-07-08T11:47:36;22.90;58.20
15983;DHT22;14442;50.196;8.096;2023-07-08T11:50:04;22.90;58.10
15983;DHT22;14442;50.196;8.096;2023-07-08T11:52:32;22.90;58.10
15983;DHT22;14442;50.196;8.096;2023-07-08T11:55:02;23.00;58.10
15983;DHT22;14442;50.196;8.096;2023-07-08T11:57:29;23.00;58.10
15983;DHT22;14442;50.196;8.096;2023-07-08T12:00:12;23.00;58.00
15983;DHT22;14442;50.196;8.096;2023-07-08T12:02:49;23.00;58.00
15983;DHT22;14442;50.196;8.096;2023-07-08T12:05:16;23.00;57.90
15983;DHT22;14442;50.196;8.096;2023-07-08T12:07:44;23.00;58.60
15983;DHT22;14442;50.196;8.096;2023-07-08T12:10:11;23.10;58.00
15983;DHT22;14442;50.196;8.096;2023-07-08T12:12:40;23.10;57.90
15983;DHT22;14442;50.196;8.096;2023-07-08T12:15:11;23.10;57.90
15983;DHT22;14442;50.196;8.096;2023-07-08T12:17:38;23.10;57.90
15983;DHT22;14442;50.196;8.096;2023-07-08T12:20:10;23.10;57.80
15983;DHT22;14442;50.196;8.096;2023-07-08T12:22:39;23.10;57.80
15983;DHT22;14442;50.196;8.096;2023-07-08T12:25:07;23.20;57.90
15983;DHT22;14442;50.196;8.096;2023-07-08T12:27:34;23.20;57.90
15983;DHT22;14442;50.196;8.096;2023-07-08T12:30:01;23.20;57.80
15983;DHT22;14442;50.196;8.096;2023-07-08T12:32:28;23.20;57.80
15983;DHT22;14442;50.196;8.096;2023-07-08T12:34:54;23.20;57.70
15983;DHT22;14442;50.196;8.096;2023-07-08T12:37:22;23.30;57.80
15983;DHT22;14442;50.196;8.096;2023-07-08T12:39:55;23.30;57.70
15983;DHT22;14442;50.196;8.096;2023-07-08T12:42:24;23.30;57.70
15983;DHT22;14442;50.196;8.096;2023-07-08T12:44:51;23.30;57.60
15983;DHT22;14442;50.196;8.096;2023-07-08T12:47:18;23.40;57.70
15983;DHT22;14442;50.196;8.096;2023-07-08T12:49:47;23.40;57.60
15983;DHT22;14442;50.196;8.096;2023-07-08T12:52:20;23.40;57.60
15983;DHT22;14442;50.196;8.096;2023-07-08T12:54:49;23.40;57.60
15983;DHT22;14442;50.196;8.096;2023-07-08T12:57:16;23.50;57.60
15983;DHT22;14442;50.196;8.096;2023-07-08T12:59:43;23.50;57.50
15983;DHT22;14442;50.196;8.096;2023-07-08T13:02:12;23.50;57.50
15983;DHT22;14442;50.196;8.096;2023-07-08T13:04:40;23.50;57.50
15983;DHT22;14442;50.196;8.096;2023-07-08T13:07:08;23.60;57.50
15983;DHT22;14442;50.196;8.096;2023-07-08T13:09:36;23.60;57.50
15983;DHT22;14442;50.196;8.096;2023-07-08T13:12:05;23.60;57.50
15983;DHT22;14442;50.196;8.096;2023-07-08T13:14:37;23.70;57.50
15983;DHT22;14442;50.196;8.096;2023-07-08T13:17:08;23.60;57.30
15983;DHT22;14442;50.196;8.096;2023-07-08T13:19:36;23.70;57.40
15983;DHT22;14442;50.196;8.096;2023-07-08T13:22:02;23.70;57.40
15983;DHT22;14442;50.196;8.096;2023-07-08T13:24:30;23.70;57.30
15983;DHT22;14442;50.196;8.096;2023-07-08T13:26:57;23.70;57.30
15983;DHT22;14442;50.196;8.096;2023-07-08T13:29:25;23.70;57.20
15983;DHT22;14442;50.196;8.096;2023-07-08T13:31:55;23.70;57.10
15983;DHT22;14442;50.196;8.096;2023-07-08T13:34:23;23.70;57.10
15983;DHT22;14442;50.196;8.096;2023-07-08T13:36:51;23.70;57.00
15983;DHT22;14442;50.196;8.096;2023-07-08T13:39:19;23.70;56.90
15983;DHT22;14442;50.196;8.096;2023-07-08T13:41:47;23.70;56.80
15983;DHT22;14442;50.196;8.096;2023-07-08T13:44:14;23.70;56.80
15983;DHT22;14442;50.196;8.096;2023-07-08T13:46:44;23.80;56.80
15983;DHT22;14442;50.196;8.096;2023-07-08T13:49:12;23.80;57.30
15983;DHT22;14442;50.196;8.096;2023-07-08T13:51:39;23.80;56.60
15983;DHT22;14442;50.196;8.096;2023-07-08T13:54:13;23.90;56.60
15983;DHT22;14442;50.196;8.096;2023-07-08T13:56:40;23.90;56.50
15983;DHT22;14442;50.196;8.096;2023-07-08T13:59:08;23.90;56.50
15983;DHT22;14442;50.196;8.096;2023-07-08T14:01:36;23.90;56.50
15983;DHT22;14442;50.196;8.096;2023-07-08T14:04:05;23.90;56.50
15983;DHT22;14442;50.196;8.096;2023-07-08T14:06:33;24.00;56.50
15983;DHT22;14442;50.196;8.096;2023-07-08T14:09:03;23.90;56.40
15983;DHT22;14442;50.196;8.096;2023-07-08T14:11:30;23.90;56.40
15983;DHT22;14442;50.196;8.096;2023-07-08T14:13:57;24.00;56.40
15983;DHT22;14442;50.196;8.096;2023-07-08T14:16:24;24.10;56.40
15983;DHT22;14442;50.196;8.096;2023-07-08T14:18:52;24.10;56.40
15983;DHT22;14442;50.196;8.096;2023-07-08T14:21:20;24.10;56.40
15983;DHT22;14442;50.196;8.096;2023-07-08T14:23:47;24.10;56.30
15983;DHT22;14442;50.196;8.096;2023-07-08T14:26:13;24.20;56.40
15983;DHT22;14442;50.196;8.096;2023-07-08T14:28:40;24.20;56.30
15983;DHT22;14442;50.196;8.096;2023-07-08T14:31:08;24.20;56.30
15983;DHT22;14442;50.196;8.096;2023-07-08T14:33:35;24.20;56.30
15983;DHT22;14442;50.196;8.096;2023-07-08T14:36:02;24.20;56.30
15983;DHT22;14442;50.196;8.096;2023-07-08T14:38:30;24.20;56.20
15983;DHT22;14442;50.196;8.096;2023-07-08T14:40:56;24.30;56.30
15983;DHT22;14442;50.196;8.096;2023-07-08T14:43:24;24.30;56.30
15983;DHT22;14442;50.196;8.096;2023-07-08T14:45:53;24.30;56.30
15983;DHT22;14442;50.196;8.096;2023-07-08T14:48:20;24.30;56.20
15983;DHT22;14442;50.196;8.096;2023-07-08T14:50:47;24.30;56.20
15983;DHT22;14442;50.196;8.096;2023-07-08T14:53:14;24.30;56.20
15983;DHT22;14442;50.196;8.096;2023-07-08T14:55:43;24.30;56.20
15983;DHT22;14442;50.196;8.096;2023-07-08T14:58:10;24.30;56.20
15983;DHT22;14442;50.196;8.096;2023-07-08T15:00:43;24.30;56.20
15983;DHT22;14442;50.196;8.096;2023-07-08T15:03:09;24.30;56.10
15983;DHT22;14442;50.196;8.096;2023-07-08T15:05:36;24.30;56.20
15983;DHT22;14442;50.196;8.096;2023-07-08T15:08:03;24.40;56.20
15983;DHT22;14442;50.196;8.096;2023-07-08T15:10:30;24.30;56.10
15983;DHT22;14442;50.196;8.096;2023-07-08T15:12:59;24.30;56.20
15983;DHT22;14442;50.196;8.096;2023-07-08T15:15:26;24.30;56.20
15983;DHT22;14442;50.196;8.096;2023-07-08T15:17:53;24.30;56.20
15983;DHT22;14442;50.196;8.096;2023-07-08T15:20:20;24.30;56.20
15983;DHT22;14442;50.196;8.096;2023-07-08T15:22:47;24.40;56.30
15983;DHT22;14442;50.196;8.096;2023-07-08T15:25:14;24.40;56.30
15983;DHT22;14442;50.196;8.096;2023-07-08T15:27:41;24.40;56.20
15983;DHT22;14442;50.196;8.096;2023-07-08T15:30:20;24.40;56.20
15983;DHT22;14442;50.196;8.096;2023-07-08T15:32:47;24.40;56.20
15983;DHT22;14442;50.196;8.096;2023-07-08T15:35:14;24.40;56.20
15983;DHT22;14442;50.196;8.096;2023-07-08T15:37:41;24.30;56.20